Time;durP1;ratioP1;P1;durP2;ratioP2;P2;SDS_P1;SDS_P2;PMS_P1;PMS_P2;Temp;Humidity;BMP_temperature;BMP_pressure;BME280_temperature;BME280_humidity;BME280_pressure;Samples;Min_cycle;Max_cycle;Signal;HPM_P1;HPM_P2
2023/08/27 00:00:53;;;;;;;;;;;;;;;;;;5073206;28;20419;-65
2023/08/27 00:03:19;;;;;;;;;;;;;;;;;;5071000;28;19917;-65
2023/08/27 00:05:45;;;;;;;;;;;;;;;;;;5066479;28;19963;-65
2023/08/27 00:08:10;;;;;;;;;;;;;;;;;;5068229;28;19944;-65
2023/08/27 00:10:36;;;;;;;;;;;;;;;;;;5069354;28;19917;-65
2023/08/27 00:13:02;;;;;;;;;;;;;;;;;;5054932;28;19955;-66
2023/08/27 00:15:28;;;;;;;;;;;;;;;;;;5055350;28;19909;-65
2023/08/27 00:17:54;;;;;;;;;;;;;;;;;;5074170;28;19912;-65
2023/08/27 00:20:20;;;;;;;;;;;;;;;;;;5074619;28;19942;-65
2023/08/27 00:22:46;;;;;;;;;;;;;;;;;;5074370;28;19913;-65
2023/08/27 00:25:12;;;;;;;;;;;;;;;;;;5054951;28;19913;-65
2023/08/27 00:27:38;;;;;;;;;;;;;;;;;;5055110;28;19913;-65
2023/08/27 00:30:04;;;;;;;;;;;;;;;;;;5055397;28;19912;-65
2023/08/27 00:32:31;;;;;;;;;;;;;;;;;;5055076;28;20379;-66
2023/08/27 00:34:57;;;;;;;;;;;;;;;;;;5073407;28;19913;-64
2023/08/27 00:37:23;;;;;;;;;;;;;;;;;;5073785;28;20020;-65
2023/08/27 00:39:49;;;;;;;;;;;;;;;;;;5070289;28;20425;-65
2023/08/27 00:42:15;;;;;;;;;;;;;;;;;;5060221;28;19912;-65
2023/08/27 00:44:41;;;;;;;;;;;;;;;;;;5054867;28;20279;-65
2023/08/27 00:47:07;;;;;;;;;;;;;;;;;;5059011;28;19969;-65
2023/08/27 00:49:33;;;;;;;;;;;;;;;;;;5074522;28;20002;-65
2023/08/27 00:51:58;;;;;;;;;;;;;;;;;;5065371;28;19962;-65
2023/08/27 00:54:24;;;;;;;;;;;;;;;;;;5054630;28;20058;-65
2023/08/27 00:56:50;;;;;;;;;;;;;;;;;;5054648;28;20363;-65
2023/08/27 00:59:16;;;;;;;;;;;;;;;;;;5067902;28;20006;-67
2023/08/27 01:01:43;;;;;;;;;;;;;;;;;;5074209;28;19962;-66
2023/08/27 01:04:09;;;;;;;;;;;;;;;;;;5072998;28;20003;-66
2023/08/27 01:06:34;;;;;;;;;;;;;;;;;;5064269;28;19908;-68
2023/08/27 01:09:00;;;;;;;;;;;;;;;;;;5066215;28;19924;-65
2023/08/27 01:11:26;;;;;;;;;;;;;;;;;;5059191;28;20387;-64
2023/08/27 01:13:52;;;;;;;;;;;;;;;;;;5068604;28;19913;-67
2023/08/27 01:16:18;;;;;;;;;;;;;;;;;;5070689;28;20003;-67
2023/08/27 01:18:44;;;;;;;;;;;;;;;;;;5059805;28;20782;-68
2023/08/27 01:21:10;;;;;;;;;;;;;;;;;;5066933;28;20003;-67
2023/08/27 01:23:36;;;;;;;;;;;;;;;;;;5074044;28;19912;-67
2023/08/27 01:26:02;;;;;;;;;;;;;;;;;;5072415;28;20363;-67
2023/08/27 01:28:28;;;;;;;;;;;;;;;;;;5066565;28;20012;-66
2023/08/27 01:30:55;;;;;;;;;;;;;;;;;;5071437;28;19958;-68
2023/08/27 01:33:21;;;;;;;;;;;;;;;;;;5072991;28;19913;-67
2023/08/27 01:35:47;;;;;;;;;;;;;;;;;;5069857;28;20011;-66
2023/08/27 01:38:13;;;;;;;;;;;;;;;;;;5073146;28;20003;-65
2023/08/27 01:40:39;;;;;;;;;;;;;;;;;;5073661;28;19908;-66
2023/08/27 01:43:05;;;;;;;;;;;;;;;;;;5068060;28;20034;-65
2023/08/27 01:45:31;;;;;;;;;;;;;;;;;;5065614;28;20019;-66
2023/08/27 01:47:57;;;;;;;;;;;;;;;;;;5070755;28;19920;-65
2023/08/27 01:50:23;;;;;;;;;;;;;;;;;;5073072;28;20421;-66
2023/08/27 01:52:49;;;;;;;;;;;;;;;;;;5072019;28;20321;-66
2023/08/27 01:55:15;;;;;;;;;;;;;;;;;;5073466;28;19995;-67
2023/08/27 01:57:41;;;;;;;;;;;;;;;;;;5073272;28;19909;-66
2023/08/27 02:00:09;;;;;;;;;;;;;;;;;;5054422;28;19921;-66
2023/08/27 02:02:36;;;;;;;;;;;;;;;;;;5058884;28;19963;-64
2023/08/27 02:05:02;;;;;;;;;;;;;;;;;;5052816;28;19920;-67
2023/08/27 02:07:29;;;;;;;;;;;;;;;;;;5066650;28;19958;-65
2023/08/27 02:09:55;;;;;;;;;;;;;;;;;;5073353;28;19956;-66
2023/08/27 02:12:21;;;;;;;;;;;;;;;;;;5073143;28;20393;-66
2023/08/27 02:14:46;;;;;;;;;;;;;;;;;;5072768;28;19998;-66
2023/08/27 02:17:13;;;;;;;;;;;;;;;;;;5069572;28;19923;-66
2023/08/27 02:19:38;;;;;;;;;;;;;;;;;;5067011;28;19925;-64
2023/08/27 02:22:04;;;;;;;;;;;;;;;;;;5070881;28;19958;-64
2023/08/27 02:24:30;;;;;;;;;;;;;;;;;;5070042;28;20300;-64
2023/08/27 02:26:56;;;;;;;;;;;;;;;;;;5067337;28;19982;-63
2023/08/27 02:29:22;;;;;;;;;;;;;;;;;;5069239;28;20015;-65
2023/08/27 02:31:48;;;;;;;;;;;;;;;;;;5067238;28;19964;-64
2023/08/27 02:34:14;;;;;;;;;;;;;;;;;;5070275;28;19913;-64
2023/08/27 02:36:40;;;;;;;;;;;;;;;;;;5060199;28;19998;-65
2023/08/27 02:39:06;;;;;;;;;;;;;;;;;;5072670;28;19947;-65
2023/08/27 02:41:32;;;;;;;;;;;;;;;;;;5072360;28;20435;-64
2023/08/27 02:43:58;;;;;;;;;;;;;;;;;;5072763;28;19918;-64
2023/08/27 02:46:24;;;;;;;;;;;;;;;;;;5068360;28;19934;-63
2023/08/27 02:48:50;;;;;;;;;;;;;;;;;;5071330;28;19923;-65
2023/08/27 02:51:15;;;;;;;;;;;;;;;;;;5069488;28;20295;-64
2023/08/27 02:53:41;;;;;;;;;;;;;;;;;;5071911;28;20007;-65
2023/08/27 02:56:08;;;;;;;;;;;;;;;;;;5070608;28;20003;-65
2023/08/27 02:58:34;;;;;;;;;;;;;;;;;;5064209;28;19912;-63
2023/08/27 03:00:59;;;;;;;;;;;;;;;;;;5067452;28;20456;-65
2023/08/27 03:03:25;;;;;;;;;;;;;;;;;;5069996;28;19917;-63
2023/08/27 03:05:51;;;;;;;;;;;;;;;;;;5067692;28;19916;-66
2023/08/27 03:08:17;;;;;;;;;;;;;;;;;;5069825;28;20458;-64
2023/08/27 03:10:43;;;;;;;;;;;;;;;;;;5070661;28;19913;-65
2023/08/27 03:13:09;;;;;;;;;;;;;;;;;;5066272;28;19917;-65
2023/08/27 03:15:35;;;;;;;;;;;;;;;;;;5063214;28;19916;-65
2023/08/27 03:18:01;;;;;;;;;;;;;;;;;;5071278;28;19916;-66
2023/08/27 03:20:27;;;;;;;;;;;;;;;;;;5070606;28;19930;-65
2023/08/27 03:22:53;;;;;;;;;;;;;;;;;;5071070;28;19912;-65
2023/08/27 03:25:18;;;;;;;;;;;;;;;;;;5065613;28;19916;-65
2023/08/27 03:27:44;;;;;;;;;;;;;;;;;;5068919;28;20380;-65
2023/08/27 03:30:10;;;;;;;;;;;;;;;;;;5066719;28;19913;-62
2023/08/27 03:32:36;;;;;;;;;;;;;;;;;;5070294;28;20173;-64
2023/08/27 03:35:02;;;;;;;;;;;;;;;;;;5074330;28;19994;-62
2023/08/27 03:37:28;;;;;;;;;;;;;;;;;;5073255;28;20343;-63
2023/08/27 03:39:54;;;;;;;;;;;;;;;;;;5073842;28;19947;-62
2023/08/27 03:42:20;;;;;;;;;;;;;;;;;;5070834;28;20003;-64
2023/08/27 03:44:46;;;;;;;;;;;;;;;;;;5063340;28;19952;-62
2023/08/27 03:47:12;;;;;;;;;;;;;;;;;;5067663;28;20527;-64
2023/08/27 03:49:38;;;;;;;;;;;;;;;;;;5073755;28;19916;-62
2023/08/27 03:52:04;;;;;;;;;;;;;;;;;;5075021;28;19923;-63
2023/08/27 03:54:30;;;;;;;;;;;;;;;;;;5067558;28;19916;-63
2023/08/27 03:56:56;;;;;;;;;;;;;;;;;;5068606;28;19963;-63
2023/08/27 03:59:22;;;;;;;;;;;;;;;;;;5065219;28;20383;-63
2023/08/27 04:01:48;;;;;;;;;;;;;;;;;;5071329;28;19977;-61
2023/08/27 04:04:13;;;;;;;;;;;;;;;;;;5068136;28;20224;-63
2023/08/27 04:06:39;;;;;;;;;;;;;;;;;;5074692;28;19913;-63
2023/08/27 04:09:05;;;;;;;;;;;;;;;;;;5074406;28;20393;-63
2023/08/27 04:11:31;;;;;;;;;;;;;;;;;;5073059;28;19913;-63
2023/08/27 04:13:57;;;;;;;;;;;;;;;;;;5073031;28;19955;-63
2023/08/27 04:16:23;;;;;;;;;;;;;;;;;;5074532;28;19920;-63
2023/08/27 04:18:49;;;;;;;;;;;;;;;;;;5074391;28;20716;-63
2023/08/27 04:21:15;;;;;;;;;;;;;;;;;;5073794;28;20019;-63
2023/08/27 04:23:41;;;;;;;;;;;;;;;;;;5074475;28;19969;-63
2023/08/27 04:26:07;;;;;;;;;;;;;;;;;;5073198;28;19913;-63
2023/08/27 04:28:33;;;;;;;;;;;;;;;;;;5060331;28;19959;-63
2023/08/27 04:30:59;;;;;;;;;;;;;;;;;;5073671;28;19927;-63
2023/08/27 04:33:25;;;;;;;;;;;;;;;;;;5073960;28;19935;-63
2023/08/27 04:35:52;;;;;;;;;;;;;;;;;;5071470;28;19909;-63
2023/08/27 04:38:18;;;;;;;;;;;;;;;;;;5069600;28;19962;-63
2023/08/27 04:40:44;;;;;;;;;;;;;;;;;;5074482;28;19912;-59
2023/08/27 04:43:10;;;;;;;;;;;;;;;;;;5074532;28;20065;-59
2023/08/27 04:45:36;;;;;;;;;;;;;;;;;;5073447;28;19917;-60
2023/08/27 04:48:02;;;;;;;;;;;;;;;;;;5074513;28;19999;-59
2023/08/27 04:50:27;;;;;;;;;;;;;;;;;;5074212;28;19909;-59
2023/08/27 04:52:53;;;;;;;;;;;;;;;;;;5074644;28;20380;-59
2023/08/27 04:55:19;;;;;;;;;;;;;;;;;;5068708;28;19993;-59
2023/08/27 04:57:45;;;;;;;;;;;;;;;;;;5066925;28;20018;-61
2023/08/27 05:00:13;;;;;;;;;;;;;;;;;;5068969;28;20490;-60
2023/08/27 05:02:39;;;;;;;;;;;;;;;;;;5071519;28;19913;-59
2023/08/27 05:05:05;;;;;;;;;;;;;;;;;;5086215;28;19947;-59
2023/08/27 05:07:31;;;;;;;;;;;;;;;;;;5055847;28;20347;-60
2023/08/27 05:09:57;;;;;;;;;;;;;;;;;;5077281;28;19916;-58
2023/08/27 05:12:23;;;;;;;;;;;;;;;;;;5080623;28;19980;-59
2023/08/27 05:14:48;;;;;;;;;;;;;;;;;;5069065;28;19965;-59
2023/08/27 05:17:14;;;;;;;;;;;;;;;;;;5066334;28;19912;-59
2023/08/27 05:19:40;;;;;;;;;;;;;;;;;;5073500;28;19946;-60
2023/08/27 05:22:06;;;;;;;;;;;;;;;;;;5073344;28;20002;-58
2023/08/27 05:24:32;;;;;;;;;;;;;;;;;;5060211;28;19944;-61
2023/08/27 05:26:58;;;;;;;;;;;;;;;;;;5066108;28;19919;-60
2023/08/27 05:29:24;;;;;;;;;;;;;;;;;;5073675;28;19962;-59
2023/08/27 05:31:50;;;;;;;;;;;;;;;;;;5071260;28;20391;-60
2023/08/27 05:34:16;;;;;;;;;;;;;;;;;;5068980;28;19912;-59
2023/08/27 05:36:42;;;;;;;;;;;;;;;;;;5067215;28;20277;-59
2023/08/27 05:39:08;;;;;;;;;;;;;;;;;;5071559;28;19919;-61
2023/08/27 05:41:34;;;;;;;;;;;;;;;;;;5073105;28;19908;-59
2023/08/27 05:44:00;;;;;;;;;;;;;;;;;;5071964;28;19921;-59
2023/08/27 05:46:26;;;;;;;;;;;;;;;;;;5061422;28;19919;-59
2023/08/27 05:48:52;;;;;;;;;;;;;;;;;;5070721;28;19959;-60
2023/08/27 05:51:17;;;;;;;;;;;;;;;;;;5071782;28;19992;-64
2023/08/27 05:53:43;;;;;;;;;;;;;;;;;;5072709;28;19916;-64
2023/08/27 05:56:09;;;;;;;;;;;;;;;;;;5071100;28;19908;-64
2023/08/27 05:58:35;;;;;;;;;;;;;;;;;;5070640;28;20007;-64
2023/08/27 06:01:04;;;;;;;;;;;;;;;;;;5068168;28;19920;-64
2023/08/27 06:03:30;;;;;;;;;;;;;;;;;;5072465;28;19985;-64
2023/08/27 06:05:56;;;;;;;;;;;;;;;;;;5067065;28;20345;-64
2023/08/27 06:08:22;;;;;;;;;;;;;;;;;;5072405;28;19916;-65
2023/08/27 06:10:47;;;;;;;;;;;;;;;;;;5070956;28;19943;-64
2023/08/27 06:13:13;;;;;;;;;;;;;;;;;;5071121;28;20019;-65
2023/08/27 06:15:39;;;;;;;;;;;;;;;;;;5071642;28;19917;-64
2023/08/27 06:18:05;;;;;;;;;;;;;;;;;;5072389;28;19909;-64
2023/08/27 06:20:33;;;;;;;;;;;;;;;;;;5068800;28;19920;-65
2023/08/27 06:22:58;;;;;;;;;;;;;;;;;;5070070;28;20007;-64
2023/08/27 06:25:24;;;;;;;;;;;;;;;;;;5071049;28;20324;-64
2023/08/27 06:27:50;;;;;;;;;;;;;;;;;;5069456;28;20031;-64
2023/08/27 06:30:16;;;;;;;;;;;;;;;;;;5070032;28;19912;-65
2023/08/27 06:32:42;;;;;;;;;;;;;;;;;;5060985;28;19923;-65
2023/08/27 06:35:09;;;;;;;;;;;;;;;;;;5060782;28;20645;-64
2023/08/27 06:37:35;;;;;;;;;;;;;;;;;;5065089;28;19912;-64
2023/08/27 06:40:00;;;;;;;;;;;;;;;;;;5057547;28;19939;-64
2023/08/27 06:42:27;;;;;;;;;;;;;;;;;;5068568;28;19918;-64
2023/08/27 06:44:53;;;;;;;;;;;;;;;;;;5064301;28;20365;-64
2023/08/27 06:47:19;;;;;;;;;;;;;;;;;;5064832;28;19969;-65
2023/08/27 06:49:44;;;;;;;;;;;;;;;;;;5063936;28;20021;-64
2023/08/27 06:52:10;;;;;;;;;;;;;;;;;;5073592;28;20300;-64
2023/08/27 06:54:36;;;;;;;;;;;;;;;;;;5066700;28;19955;-65
2023/08/27 06:57:02;;;;;;;;;;;;;;;;;;5069732;28;19959;-65
2023/08/27 06:59:28;;;;;;;;;;;;;;;;;;5071013;28;19935;-64
2023/08/27 07:01:54;;;;;;;;;;;;;;;;;;5063283;28;20372;-64
2023/08/27 07:04:20;;;;;;;;;;;;;;;;;;5070437;28;19919;-65
2023/08/27 07:06:46;;;;;;;;;;;;;;;;;;5069315;28;19935;-65
2023/08/27 07:09:12;;;;;;;;;;;;;;;;;;5065588;28;19912;-64
2023/08/27 07:11:37;;;;;;;;;;;;;;;;;;5066551;28;19955;-64
2023/08/27 07:14:03;;;;;;;;;;;;;;;;;;5062143;28;19942;-65
2023/08/27 07:16:29;;;;;;;;;;;;;;;;;;5067732;28;19909;-64
2023/08/27 07:18:55;;;;;;;;;;;;;;;;;;5066775;28;20416;-65
2023/08/27 07:21:21;;;;;;;;;;;;;;;;;;5008575;28;1666147;-63
2023/08/27 07:23:47;;;;;;;;;;;;;;;;;;5061793;28;20021;-65
2023/08/27 07:26:13;;;;;;;;;;;;;;;;;;5066062;28;19962;-65
2023/08/27 07:28:39;;;;;;;;;;;;;;;;;;5058552;28;19936;-65
2023/08/27 07:31:05;;;;;;;;;;;;;;;;;;5064592;28;19952;-65
2023/08/27 07:33:31;;;;;;;;;;;;;;;;;;5055593;28;19971;-64
2023/08/27 07:35:57;;;;;;;;;;;;;;;;;;5056406;28;19947;-64
2023/08/27 07:38:25;;;;;;;;;;;;;;;;;;5062531;28;19936;-65
2023/08/27 07:40:51;;;;;;;;;;;;;;;;;;5066808;28;19913;-65
2023/08/27 07:43:17;;;;;;;;;;;;;;;;;;5065589;28;19920;-65
2023/08/27 07:45:43;;;;;;;;;;;;;;;;;;5054186;28;20354;-64
2023/08/27 07:48:09;;;;;;;;;;;;;;;;;;5061286;28;20315;-65
2023/08/27 07:50:35;;;;;;;;;;;;;;;;;;5063778;28;19955;-64
2023/08/27 07:53:00;;;;;;;;;;;;;;;;;;5064843;28;19956;-65
2023/08/27 07:55:31;;;;;;;;;;;;;;;;;;5064127;28;20359;-64
2023/08/27 07:57:57;;;;;;;;;;;;;;;;;;5067073;28;19924;-65
2023/08/27 08:00:22;;;;;;;;;;;;;;;;;;5062280;28;20070;-65
2023/08/27 08:02:48;;;;;;;;;;;;;;;;;;5061283;28;19913;-65
2023/08/27 08:05:14;;;;;;;;;;;;;;;;;;5063596;28;20386;-64
2023/08/27 08:07:41;;;;;;;;;;;;;;;;;;5065765;28;19970;-64
2023/08/27 08:10:07;;;;;;;;;;;;;;;;;;5068373;28;20325;-64
2023/08/27 08:12:33;;;;;;;;;;;;;;;;;;5056691;28;20049;-65
2023/08/27 08:14:58;;;;;;;;;;;;;;;;;;5061123;28;20042;-64
2023/08/27 08:17:24;;;;;;;;;;;;;;;;;;5068078;28;20392;-65
2023/08/27 08:19:51;;;;;;;;;;;;;;;;;;5061985;28;19920;-64
2023/08/27 08:22:17;;;;;;;;;;;;;;;;;;5072465;28;19917;-65
2023/08/27 08:24:43;;;;;;;;;;;;;;;;;;5062713;28;19913;-65
2023/08/27 08:27:09;;;;;;;;;;;;;;;;;;5068529;28;19956;-65
2023/08/27 08:29:35;;;;;;;;;;;;;;;;;;5062932;28;20002;-65
2023/08/27 08:32:01;;;;;;;;;;;;;;;;;;5073816;28;19948;-65
2023/08/27 08:34:30;;;;;;;;;;;;;;;;;;5064134;28;20389;-65
2023/08/27 08:36:56;;;;;;;;;;;;;;;;;;5067307;28;20372;-64
2023/08/27 08:39:23;;;;;;;;;;;;;;;;;;5066851;28;20007;-64
2023/08/27 08:41:50;;;;;;;;;;;;;;;;;;5067097;28;19919;-65
2023/08/27 08:44:16;;;;;;;;;;;;;;;;;;5072742;28;19998;-64
2023/08/27 08:46:42;;;;;;;;;;;;;;;;;;5068266;28;19951;-64
2023/08/27 08:49:08;;;;;;;;;;;;;;;;;;5064157;28;19921;-64
2023/08/27 08:51:34;;;;;;;;;;;;;;;;;;5064952;28;19951;-64
2023/08/27 08:54:00;;;;;;;;;;;;;;;;;;5068137;28;19917;-64
2023/08/27 08:56:26;;;;;;;;;;;;;;;;;;5060628;28;19956;-64
2023/08/27 08:58:52;;;;;;;;;;;;;;;;;;5056847;28;20015;-64
2023/08/27 09:01:18;;;;;;;;;;;;;;;;;;5061989;28;19922;-64
2023/08/27 09:03:44;;;;;;;;;;;;;;;;;;5070700;28;19954;-65
2023/08/27 09:06:10;;;;;;;;;;;;;;;;;;5072557;28;20087;-65
2023/08/27 09:08:36;;;;;;;;;;;;;;;;;;5073461;28;20007;-65
2023/08/27 09:11:02;;;;;;;;;;;;;;;;;;5067167;28;19912;-65
2023/08/27 09:13:27;;;;;;;;;;;;;;;;;;5067951;28;19972;-64
2023/08/27 09:15:54;;;;;;;;;;;;;;;;;;5058661;28;20380;-65
2023/08/27 09:18:19;;;;;;;;;;;;;;;;;;5070002;28;19916;-65
2023/08/27 09:20:45;;;;;;;;;;;;;;;;;;5058322;28;20418;-64
2023/08/27 09:23:13;;;;;;;;;;;;;;;;;;5062427;28;19958;-65
2023/08/27 09:25:39;;;;;;;;;;;;;;;;;;5063753;28;19927;-64
2023/08/27 09:28:04;;;;;;;;;;;;;;;;;;5062518;28;20367;-65
2023/08/27 09:30:30;;;;;;;;;;;;;;;;;;5067254;28;19966;-65
2023/08/27 09:32:56;;;;;;;;;;;;;;;;;;5065896;28;19971;-65
2023/08/27 09:35:22;;;;;;;;;;;;;;;;;;5064020;28;19916;-65
2023/08/27 09:37:48;;;;;;;;;;;;;;;;;;5063917;28;19977;-65
2023/08/27 09:40:14;;;;;;;;;;;;;;;;;;5063283;28;19920;-65
2023/08/27 09:42:40;;;;;;;;;;;;;;;;;;5062018;28;20035;-65
2023/08/27 09:45:06;;;;;;;;;;;;;;;;;;5060815;28;19956;-65
2023/08/27 09:47:32;;;;;;;;;;;;;;;;;;5060644;28;19963;-65
2023/08/27 09:49:58;;;;;;;;;;;;;;;;;;5067479;28;19917;-65
2023/08/27 09:52:24;;;;;;;;;;;;;;;;;;5072139;28;20015;-65
2023/08/27 09:54:50;;;;;;;;;;;;;;;;;;5063490;28;19916;-65
2023/08/27 09:57:16;;;;;;;;;;;;;;;;;;5066849;28;20000;-65
2023/08/27 09:59:42;;;;;;;;;;;;;;;;;;5062404;28;20894;-65
2023/08/27 10:02:07;;;;;;;;;;;;;;;;;;5060736;28;19916;-65
2023/08/27 10:04:33;;;;;;;;;;;;;;;;;;5069234;28;20283;-64
2023/08/27 10:06:59;;;;;;;;;;;;;;;;;;5060302;28;19943;-65
2023/08/27 10:09:25;;;;;;;;;;;;;;;;;;5064857;28;19912;-65
2023/08/27 10:11:51;;;;;;;;;;;;;;;;;;5066124;28;20415;-65
2023/08/27 10:14:17;;;;;;;;;;;;;;;;;;5057353;28;20059;-65
2023/08/27 10:16:43;;;;;;;;;;;;;;;;;;5061107;28;20054;-65
2023/08/27 10:19:09;;;;;;;;;;;;;;;;;;5060799;28;19959;-65
2023/08/27 10:21:35;;;;;;;;;;;;;;;;;;5071206;28;19967;-65
2023/08/27 10:24:01;;;;;;;;;;;;;;;;;;5070775;28;19912;-65
2023/08/27 10:26:27;;;;;;;;;;;;;;;;;;5065850;28;19997;-64
2023/08/27 10:28:53;;;;;;;;;;;;;;;;;;5070556;28;19978;-65
2023/08/27 10:31:19;;;;;;;;;;;;;;;;;;5063695;28;19942;-64
2023/08/27 10:33:45;;;;;;;;;;;;;;;;;;5062932;28;19912;-65
2023/08/27 10:36:11;;;;;;;;;;;;;;;;;;5068910;28;19957;-65
2023/08/27 10:38:36;;;;;;;;;;;;;;;;;;5069400;28;20014;-65
2023/08/27 10:41:03;;;;;;;;;;;;;;;;;;5068930;28;19963;-65
2023/08/27 10:43:28;;;;;;;;;;;;;;;;;;5067784;28;20393;-65
2023/08/27 10:45:54;;;;;;;;;;;;;;;;;;5069158;28;19924;-65
2023/08/27 10:48:20;;;;;;;;;;;;;;;;;;5070777;28;19912;-65
2023/08/27 10:50:46;;;;;;;;;;;;;;;;;;5063735;28;20292;-65
2023/08/27 10:53:13;;;;;;;;;;;;;;;;;;5069216;28;19963;-65
2023/08/27 10:55:38;;;;;;;;;;;;;;;;;;5066651;28;19960;-65
2023/08/27 10:58:04;;;;;;;;;;;;;;;;;;5071202;28;19974;-65
2023/08/27 11:00:30;;;;;;;;;;;;;;;;;;5069214;28;19921;-65
2023/08/27 11:02:57;;;;;;;;;;;;;;;;;;5059721;28;19916;-65
2023/08/27 11:05:23;;;;;;;;;;;;;;;;;;5059530;28;19916;-63
2023/08/27 11:07:49;;;;;;;;;;;;;;;;;;5057883;28;19909;-63
2023/08/27 11:10:15;;;;;;;;;;;;;;;;;;5056590;28;19936;-62
2023/08/27 11:12:41;;;;;;;;;;;;;;;;;;5065824;28;19916;-62
2023/08/27 11:15:07;;;;;;;;;;;;;;;;;;5070104;28;19959;-63
2023/08/27 11:17:33;;;;;;;;;;;;;;;;;;5067877;28;19958;-63
2023/08/27 11:19:59;;;;;;;;;;;;;;;;;;5063270;28;20011;-61
2023/08/27 11:22:25;;;;;;;;;;;;;;;;;;5067232;28;20327;-62
2023/08/27 11:24:55;;;;;;;;;;;;;;;;;;5069458;28;20356;-62
2023/08/27 11:27:20;;;;;;;;;;;;;;;;;;5064478;28;19931;-62
2023/08/27 11:29:46;;;;;;;;;;;;;;;;;;5049190;28;20412;-62
2023/08/27 11:32:12;;;;;;;;;;;;;;;;;;5047637;28;21481;-62
2023/08/27 11:34:38;;;;;;;;;;;;;;;;;;5046659;28;19923;-62
2023/08/27 11:37:04;;;;;;;;;;;;;;;;;;5050172;28;19912;-62
2023/08/27 11:39:30;;;;;;;;;;;;;;;;;;5063522;28;20285;-62
2023/08/27 11:41:56;;;;;;;;;;;;;;;;;;5068331;28;19991;-62
2023/08/27 11:44:22;;;;;;;;;;;;;;;;;;5067776;28;19919;-62
2023/08/27 11:46:48;;;;;;;;;;;;;;;;;;5068239;28;20006;-63
2023/08/27 11:49:14;;;;;;;;;;;;;;;;;;5069068;28;20010;-67
2023/08/27 11:51:40;;;;;;;;;;;;;;;;;;5064339;28;19944;-67
2023/08/27 11:54:07;;;;;;;;;;;;;;;;;;5064103;28;19917;-66
2023/08/27 11:56:33;;;;;;;;;;;;;;;;;;5069137;28;20367;-67
2023/08/27 11:58:59;;;;;;;;;;;;;;;;;;5071263;28;19912;-63
2023/08/27 12:01:25;;;;;;;;;;;;;;;;;;5070984;28;20019;-62
2023/08/27 12:03:51;;;;;;;;;;;;;;;;;;5072842;28;19931;-62
2023/08/27 12:06:17;;;;;;;;;;;;;;;;;;5073399;28;20149;-62
2023/08/27 12:08:43;;;;;;;;;;;;;;;;;;5066723;28;19992;-63
2023/08/27 12:11:09;;;;;;;;;;;;;;;;;;5070483;28;20348;-62
2023/08/27 12:13:35;;;;;;;;;;;;;;;;;;5071011;28;19916;-62
2023/08/27 12:16:03;;;;;;;;;;;;;;;;;;5073013;28;19912;-62
2023/08/27 12:18:32;;;;;;;;;;;;;;;;;;5066371;28;19920;-63
2023/08/27 12:20:57;;;;;;;;;;;;;;;;;;5066503;28;19939;-62
2023/08/27 12:23:24;;;;;;;;;;;;;;;;;;5070222;28;19951;-62
2023/08/27 12:25:50;;;;;;;;;;;;;;;;;;5068294;28;20030;-62
2023/08/27 12:28:16;;;;;;;;;;;;;;;;;;5065432;28;20015;-62
2023/08/27 12:30:42;;;;;;;;;;;;;;;;;;5068881;28;20315;-62
2023/08/27 12:33:08;;;;;;;;;;;;;;;;;;5068690;28;20005;-62
2023/08/27 12:35:34;;;;;;;;;;;;;;;;;;5065219;28;19955;-62
2023/08/27 12:38:00;;;;;;;;;;;;;;;;;;5070008;28;19969;-63
2023/08/27 12:40:26;;;;;;;;;;;;;;;;;;5069909;28;20333;-62
2023/08/27 12:42:52;;;;;;;;;;;;;;;;;;5070977;28;19944;-62
2023/08/27 12:45:18;;;;;;;;;;;;;;;;;;5068504;28;19921;-62
2023/08/27 12:47:44;;;;;;;;;;;;;;;;;;5065111;28;19972;-62
2023/08/27 12:50:10;;;;;;;;;;;;;;;;;;5060605;28;19916;-62
2023/08/27 12:52:36;;;;;;;;;;;;;;;;;;5066764;28;20073;-62
2023/08/27 12:55:02;;;;;;;;;;;;;;;;;;5069758;28;19959;-62
2023/08/27 12:57:28;;;;;;;;;;;;;;;;;;5071798;28;19920;-62
2023/08/27 12:59:54;;;;;;;;;;;;;;;;;;5069102;28;20113;-67
2023/08/27 13:02:20;;;;;;;;;;;;;;;;;;5072071;28;19956;-64
2023/08/27 13:04:46;;;;;;;;;;;;;;;;;;5067165;28;19982;-67
2023/08/27 13:07:12;;;;;;;;;;;;;;;;;;5071329;28;19913;-67
2023/08/27 13:09:38;;;;;;;;;;;;;;;;;;5070152;28;19967;-62
2023/08/27 13:12:04;;;;;;;;;;;;;;;;;;5066332;28;20043;-62
2023/08/27 13:14:30;;;;;;;;;;;;;;;;;;5070888;28;20514;-62
2023/08/27 13:16:55;;;;;;;;;;;;;;;;;;5065635;28;19995;-62
2023/08/27 13:19:21;;;;;;;;;;;;;;;;;;5069551;28;19967;-62
2023/08/27 13:21:47;;;;;;;;;;;;;;;;;;5065121;28;20308;-62
2023/08/27 13:24:13;;;;;;;;;;;;;;;;;;5068809;28;19979;-61
2023/08/27 13:26:39;;;;;;;;;;;;;;;;;;5071222;28;19966;-62
2023/08/27 13:29:05;;;;;;;;;;;;;;;;;;5071522;28;19919;-62
2023/08/27 13:31:31;;;;;;;;;;;;;;;;;;5071399;28;19916;-62
2023/08/27 13:33:57;;;;;;;;;;;;;;;;;;5069370;28;20376;-62
2023/08/27 13:36:23;;;;;;;;;;;;;;;;;;5069662;28;19991;-62
2023/08/27 13:38:49;;;;;;;;;;;;;;;;;;5071683;28;19912;-62
2023/08/27 13:41:15;;;;;;;;;;;;;;;;;;5071310;28;20320;-62
2023/08/27 13:43:40;;;;;;;;;;;;;;;;;;5070855;28;19955;-62
2023/08/27 13:46:07;;;;;;;;;;;;;;;;;;5070593;28;19922;-62
2023/08/27 13:48:32;;;;;;;;;;;;;;;;;;5071242;28;20372;-62
2023/08/27 13:50:58;;;;;;;;;;;;;;;;;;5070489;28;19912;-61
2023/08/27 13:53:24;;;;;;;;;;;;;;;;;;5063343;28;19924;-62
2023/08/27 13:55:50;;;;;;;;;;;;;;;;;;5067101;28;20299;-62
2023/08/27 13:58:16;;;;;;;;;;;;;;;;;;5066183;28;19920;-61
2023/08/27 14:00:44;;;;;;;;;;;;;;;;;;5066667;28;20003;-62
2023/08/27 14:03:10;;;;;;;;;;;;;;;;;;5065084;28;19916;-62
2023/08/27 14:05:36;;;;;;;;;;;;;;;;;;5057221;28;20011;-62
2023/08/27 14:08:03;;;;;;;;;;;;;;;;;;5065755;28;20003;-62
2023/08/27 14:10:28;;;;;;;;;;;;;;;;;;5062603;28;19966;-62
2023/08/27 14:12:54;;;;;;;;;;;;;;;;;;5064860;28;19948;-62
2023/08/27 14:15:20;;;;;;;;;;;;;;;;;;5070172;28;19995;-62
2023/08/27 14:17:46;;;;;;;;;;;;;;;;;;5062901;28;19915;-62
2023/08/27 14:20:12;;;;;;;;;;;;;;;;;;5068771;28;20396;-59
2023/08/27 14:22:38;;;;;;;;;;;;;;;;;;5067293;28;19920;-59
2023/08/27 14:25:04;;;;;;;;;;;;;;;;;;5065589;28;19963;-59
2023/08/27 14:27:30;;;;;;;;;;;;;;;;;;5066801;28;19946;-59
2023/08/27 14:29:56;;;;;;;;;;;;;;;;;;5061784;28;20051;-59
2023/08/27 14:32:22;;;;;;;;;;;;;;;;;;5061094;28;19986;-58
2023/08/27 14:34:48;;;;;;;;;;;;;;;;;;5068060;28;20344;-59
2023/08/27 14:37:14;;;;;;;;;;;;;;;;;;5063062;28;19913;-61
2023/08/27 14:39:40;;;;;;;;;;;;;;;;;;5069531;28;19916;-58
2023/08/27 14:42:06;;;;;;;;;;;;;;;;;;5072750;28;19908;-58
2023/08/27 14:44:32;;;;;;;;;;;;;;;;;;5072912;28;19981;-59
2023/08/27 14:46:58;;;;;;;;;;;;;;;;;;5063947;28;19913;-58
2023/08/27 14:49:24;;;;;;;;;;;;;;;;;;5068848;28;20253;-59
2023/08/27 14:51:50;;;;;;;;;;;;;;;;;;5069233;28;19920;-58
2023/08/27 14:54:16;;;;;;;;;;;;;;;;;;5066011;28;19936;-58
2023/08/27 14:56:43;;;;;;;;;;;;;;;;;;5062435;28;20303;-58
2023/08/27 14:59:09;;;;;;;;;;;;;;;;;;5060236;28;20003;-60
2023/08/27 15:01:35;;;;;;;;;;;;;;;;;;5063899;28;20039;-58
2023/08/27 15:04:01;;;;;;;;;;;;;;;;;;5057949;28;19995;-60
2023/08/27 15:06:27;;;;;;;;;;;;;;;;;;5063704;28;19921;-60
2023/08/27 15:08:53;;;;;;;;;;;;;;;;;;5053100;28;20368;-59
2023/08/27 15:11:20;;;;;;;;;;;;;;;;;;5056593;28;19993;-58
2023/08/27 15:13:46;;;;;;;;;;;;;;;;;;5066836;28;19920;-58
2023/08/27 15:16:13;;;;;;;;;;;;;;;;;;5053821;28;20280;-60
2023/08/27 15:18:39;;;;;;;;;;;;;;;;;;5070949;28;19916;-62
2023/08/27 15:21:05;;;;;;;;;;;;;;;;;;5056330;28;19955;-62
2023/08/27 15:23:31;;;;;;;;;;;;;;;;;;5062912;28;20358;-63
2023/08/27 15:25:57;;;;;;;;;;;;;;;;;;5067486;28;20270;-63
2023/08/27 15:28:23;;;;;;;;;;;;;;;;;;5061775;28;19962;-62
2023/08/27 15:30:49;;;;;;;;;;;;;;;;;;5061633;28;20003;-61
2023/08/27 15:33:15;;;;;;;;;;;;;;;;;;5064593;28;20317;-61
2023/08/27 15:35:41;;;;;;;;;;;;;;;;;;5065912;28;19963;-61
2023/08/27 15:38:07;;;;;;;;;;;;;;;;;;5063510;28;20007;-61
2023/08/27 15:40:34;;;;;;;;;;;;;;;;;;5062565;28;19921;-61
2023/08/27 15:43:00;;;;;;;;;;;;;;;;;;5070423;28;20398;-61
2023/08/27 15:45:26;;;;;;;;;;;;;;;;;;5062968;28;19948;-61
2023/08/27 15:47:52;;;;;;;;;;;;;;;;;;5068333;28;20016;-61
2023/08/27 15:50:18;;;;;;;;;;;;;;;;;;5073283;28;19919;-61
2023/08/27 15:52:44;;;;;;;;;;;;;;;;;;5068027;28;19925;-61
2023/08/27 15:55:10;;;;;;;;;;;;;;;;;;5069103;28;19984;-61
2023/08/27 15:57:36;;;;;;;;;;;;;;;;;;5067038;28;19952;-61
2023/08/27 16:00:02;;;;;;;;;;;;;;;;;;5072187;28;19978;-61
2023/08/27 16:02:28;;;;;;;;;;;;;;;;;;5068562;28;20039;-61
2023/08/27 16:04:53;;;;;;;;;;;;;;;;;;5064402;28;19948;-61
2023/08/27 16:07:19;;;;;;;;;;;;;;;;;;5072567;28;19927;-60
2023/08/27 16:09:45;;;;;;;;;;;;;;;;;;5053996;28;19987;-61
2023/08/27 16:12:13;;;;;;;;;;;;;;;;;;5060561;28;19952;-61
2023/08/27 16:14:39;;;;;;;;;;;;;;;;;;5065353;28;19919;-61
2023/08/27 16:17:05;;;;;;;;;;;;;;;;;;5068685;28;19947;-60
2023/08/27 16:19:31;;;;;;;;;;;;;;;;;;5071552;28;19987;-61
2023/08/27 16:21:57;;;;;;;;;;;;;;;;;;5058921;28;20820;-62
2023/08/27 16:24:23;;;;;;;;;;;;;;;;;;5061036;28;19948;-61
2023/08/27 16:26:49;;;;;;;;;;;;;;;;;;5064049;28;20027;-62
2023/08/27 16:29:15;;;;;;;;;;;;;;;;;;5062952;28;19913;-61
2023/08/27 16:31:41;;;;;;;;;;;;;;;;;;5065584;28;19993;-61
2023/08/27 16:34:07;;;;;;;;;;;;;;;;;;5062527;28;20281;-61
2023/08/27 16:36:33;;;;;;;;;;;;;;;;;;5054605;28;20208;-62